Time;durP1;ratioP1;P1;durP2;ratioP2;P2;SDS_P1;SDS_P2;PMS_P1;PMS_P2;Temp;Humidity;BMP_temperature;BMP_pressure;BME280_temperature;BME280_humidity;BME280_pressure;Samples;Min_cycle;Max_cycle;Signal;HPM_P1;HPM_P2
2023/09/28 00:01:26;;;;;;;7.20;6.47;;;16.00;99.90;;;;;;4982595;28;20436;-92
2023/09/28 00:03:52;;;;;;;8.50;7.45;;;16.00;99.90;;;;;;5000100;28;20026;-93
2023/09/28 00:06:21;;;;;;;8.43;7.63;;;16.00;99.90;;;;;;4998897;28;20080;-93
2023/09/28 00:09:06;;;;;;;8.10;7.45;;;15.90;99.90;;;;;;4999882;28;20098;-93
2023/09/28 00:11:32;;;;;;;9.57;7.72;;;15.90;99.90;;;;;;4982914;28;20088;-93
2023/09/28 00:13:57;;;;;;;7.57;6.88;;;15.80;99.90;;;;;;4982183;28;20506;-93
2023/09/28 00:16:26;;;;;;;7.50;6.80;;;15.90;99.90;;;;;;4999773;28;20106;-94
2023/09/28 00:18:59;;;;;;;8.35;7.50;;;15.80;99.90;;;;;;4982114;28;20086;-93
2023/09/28 00:21:26;;;;;;;7.50;6.78;;;15.90;99.90;;;;;;4982549;28;20033;-93
2023/09/28 00:24:04;;;;;;;7.05;6.35;;;15.90;99.90;;;;;;4999878;28;20026;-93
2023/09/28 00:26:33;;;;;;;8.57;7.78;;;15.90;99.90;;;;;;4999814;28;20033;-93
2023/09/28 00:28:59;;;;;;;7.60;6.90;;;16.00;99.90;;;;;;4982131;28;20121;-93
2023/09/28 00:31:25;;;;;;;7.50;6.88;;;15.90;99.90;;;;;;4983177;28;20093;-93
2023/09/28 00:33:53;;;;;;;8.20;7.43;;;15.80;99.90;;;;;;5002114;28;20117;-94
2023/09/28 00:36:21;;;;;;;9.18;8.27;;;15.80;99.90;;;;;;5004994;28;20023;-92
2023/09/28 00:38:47;;;;;;;9.73;8.93;;;15.80;99.90;;;;;;5005783;28;20029;-93
2023/09/28 00:41:13;;;;;;;7.95;7.10;;;15.80;99.90;;;;;;4985525;28;20034;-92
2023/09/28 00:43:38;;;;;;;8.40;7.60;;;15.80;99.90;;;;;;4985940;28;20022;-93
2023/09/28 00:46:05;;;;;;;8.48;7.78;;;15.80;99.90;;;;;;4986386;28;20050;-93
2023/09/28 00:48:53;;;;;;;9.05;8.32;;;15.80;99.90;;;;;;5001189;28;20027;-93
2023/09/28 00:51:19;;;;;;;8.80;8.10;;;15.80;99.90;;;;;;4987295;28;20034;-93
2023/09/28 00:53:45;;;;;;;8.90;8.00;;;15.80;99.90;;;;;;5003157;28;20037;-93
2023/09/28 00:56:13;;;;;;;9.25;8.45;;;15.70;99.90;;;;;;5000455;28;20113;-92
2023/09/28 00:58:46;;;;;;;8.25;7.43;;;15.80;99.90;;;;;;4983577;28;20104;-93
2023/09/28 01:01:16;;;;;;;7.38;6.63;;;15.80;99.90;;;;;;5001590;28;20072;-93
2023/09/28 01:03:44;;;;;;;7.72;7.03;;;15.80;99.90;;;;;;4984704;28;20104;-93
2023/09/28 01:06:16;;;;;;;10.30;7.35;;;15.70;99.90;;;;;;4983284;28;20069;-94
2023/09/28 01:08:42;;;;;;;8.95;8.15;;;15.70;99.90;;;;;;5001569;28;20026;-95
2023/09/28 01:11:07;;;;;;;8.35;7.57;;;15.70;99.90;;;;;;5002861;28;20081;-93
2023/09/28 01:13:39;;;;;;;8.57;7.80;;;15.60;99.90;;;;;;5002477;28;20083;-93
2023/09/28 01:16:07;;;;;;;8.13;7.32;;;15.60;99.90;;;;;;4977445;28;20026;-94
2023/09/28 01:18:42;;;;;;;8.27;7.57;;;15.60;99.90;;;;;;4989920;28;20485;-94
2023/09/28 01:21:10;;;;;;;7.63;6.88;;;15.40;99.90;;;;;;4985803;28;20037;-93
2023/09/28 01:23:36;;;;;;;8.20;7.05;;;15.40;99.90;;;;;;4984123;28;20033;-93
2023/09/28 01:26:02;;;;;;;8.35;7.55;;;15.40;99.90;;;;;;5001205;28;20022;-92
2023/09/28 01:28:31;;;;;;;10.55;9.35;;;15.40;99.90;;;;;;4984414;28;20081;-94
2023/09/28 01:30:57;;;;;;;8.77;7.97;;;15.50;99.90;;;;;;4985307;28;20026;-93
2023/09/28 01:33:23;;;;;;;10.88;9.93;;;15.50;99.90;;;;;;5002308;28;20054;-92
2023/09/28 01:35:55;;;;;;;8.50;7.22;;;15.60;99.90;;;;;;5001990;28;20622;-94
2023/09/28 01:38:44;;;;;;;8.93;8.07;;;15.60;99.90;;;;;;5001111;28;20034;-93
2023/09/28 01:41:11;;;;;;;9.00;8.13;;;15.70;99.90;;;;;;4985497;28;20022;-93
2023/09/28 01:43:37;;;;;;;9.88;9.07;;;15.70;99.90;;;;;;5000329;28;20038;-93
2023/09/28 01:46:03;;;;;;;10.45;9.55;;;15.50;99.90;;;;;;4986262;28;20026;-94
2023/09/28 01:48:29;;;;;;;10.10;9.15;;;15.50;99.90;;;;;;4985764;28;20030;-93
2023/09/28 01:50:55;;;;;;;11.25;10.32;;;15.50;99.90;;;;;;4983503;28;20551;-94
2023/09/28 01:53:21;;;;;;;11.30;10.27;;;15.50;99.90;;;;;;5001745;28;20049;-93
2023/09/28 01:55:47;;;;;;;11.43;10.38;;;15.60;99.90;;;;;;5001548;28;20481;-93
2023/09/28 01:58:16;;;;;;;12.10;11.07;;;15.60;99.90;;;;;;5001900;28;20026;-93
2023/09/28 02:00:45;;;;;;;11.50;10.30;;;15.60;99.90;;;;;;4980996;28;20023;-93
2023/09/28 02:03:11;;;;;;;12.45;11.23;;;15.60;99.90;;;;;;5003118;28;20022;-93
2023/09/28 02:05:38;;;;;;;11.10;10.15;;;15.60;99.90;;;;;;4986079;28;20027;-93
2023/09/28 02:08:06;;;;;;;12.23;11.10;;;15.60;99.90;;;;;;4976647;28;20113;-92
2023/09/28 02:10:36;;;;;;;12.02;10.73;;;15.60;99.90;;;;;;5002352;28;20026;-94
2023/09/28 02:13:01;;;;;;;12.77;11.48;;;15.70;99.90;;;;;;4987708;28;20106;-93
2023/09/28 02:15:52;;;;;;;12.32;10.20;;;15.70;99.90;;;;;;4986055;28;20031;-94
2023/09/28 02:18:18;;;;;;;11.85;10.40;;;15.80;99.90;;;;;;4984605;28;20018;-93
2023/09/28 02:20:44;;;;;;;12.82;10.52;;;15.80;99.90;;;;;;5000740;28;20061;-93
2023/09/28 02:23:16;;;;;;;11.95;10.75;;;15.90;99.90;;;;;;4984185;28;20022;-94
2023/09/28 02:25:45;;;;;;;11.18;10.15;;;15.90;99.90;;;;;;5000908;28;20053;-93
2023/09/28 02:28:17;;;;;;;8.48;7.63;;;15.90;99.90;;;;;;5001221;28;20381;-92
2023/09/28 02:30:42;;;;;;;10.27;8.70;;;15.90;99.90;;;;;;4983055;28;20023;-94
2023/09/28 02:33:14;;;;;;;10.20;9.20;;;16.00;99.90;;;;;;4999252;28;20064;-94
2023/09/28 02:35:48;;;;;;;10.05;8.82;;;16.00;99.90;;;;;;5000935;28;20034;-93
2023/09/28 02:38:42;;;;;;;12.07;10.15;;;15.90;99.90;;;;;;5001104;28;20026;-92
2023/09/28 02:41:19;;;;;;;11.50;10.48;;;15.90;99.90;;;;;;4980209;28;20038;-93
2023/09/28 02:43:45;;;;;;;10.80;9.70;;;15.80;99.90;;;;;;4985552;28;20032;-93
2023/09/28 02:46:11;;;;;;;11.70;10.63;;;15.80;99.90;;;;;;4992302;28;20022;-92
2023/09/28 02:48:43;;;;;;;11.10;9.82;;;15.80;99.90;;;;;;4982673;28;20160;-92
2023/09/28 02:51:11;;;;;;;12.05;10.88;;;15.80;99.90;;;;;;4990744;28;20026;-93
2023/09/28 02:53:37;;;;;;;10.98;9.75;;;15.70;99.90;;;;;;4982522;28;20098;-93
2023/09/28 02:56:07;;;;;;;10.68;9.57;;;15.70;99.90;;;;;;4996910;28;20090;-95
2023/09/28 02:58:36;;;;;;;11.80;10.60;;;15.80;99.90;;;;;;4982211;28;20153;-93
2023/09/28 03:01:05;;;;;;;11.50;10.40;;;15.70;99.90;;;;;;4984510;28;20026;-95
2023/09/28 03:03:37;;;;;;;11.52;10.43;;;15.70;99.90;;;;;;4999786;28;20026;-94
2023/09/28 03:06:04;;;;;;;13.80;10.80;;;15.70;99.90;;;;;;4982485;28;20034;-92
2023/09/28 03:08:31;;;;;;;12.07;10.68;;;15.70;99.90;;;;;;4983755;28;20101;-93
2023/09/28 03:10:59;;;;;;;12.30;10.95;;;15.70;99.90;;;;;;4982643;28;20042;-94
2023/09/28 03:13:28;;;;;;;11.13;10.02;;;15.70;99.90;;;;;;5000070;28;20094;-93
2023/09/28 03:15:57;;;;;;;12.98;11.77;;;15.80;99.90;;;;;;4981923;28;20033;-93
2023/09/28 03:18:23;;;;;;;12.15;11.00;;;15.80;99.90;;;;;;5000182;28;20019;-92
2023/09/28 03:21:01;;;;;;;12.40;11.20;;;15.80;99.90;;;;;;4990391;28;20049;-91
2023/09/28 03:23:29;;;;;;;13.50;11.60;;;15.80;99.90;;;;;;5000152;28;20420;-93
2023/09/28 03:25:56;;;;;;;11.43;10.25;;;15.70;99.90;;;;;;4999872;28;20029;-92
2023/09/28 03:28:22;;;;;;;12.18;11.07;;;15.70;99.90;;;;;;5000164;28;20034;-93
2023/09/28 03:30:51;;;;;;;12.38;11.25;;;15.80;99.90;;;;;;4983009;28;20041;-93
2023/09/28 03:33:20;;;;;;;12.48;11.02;;;15.80;99.90;;;;;;4982812;28;20041;-92
2023/09/28 03:35:48;;;;;;;11.77;10.52;;;15.70;99.90;;;;;;4981236;28;20022;-92
2023/09/28 03:38:15;;;;;;;13.50;11.55;;;15.70;99.90;;;;;;4980783;28;20090;-92
2023/09/28 03:40:47;;;;;;;11.07;10.07;;;15.80;99.90;;;;;;4997620;28;20113;-92
2023/09/28 03:43:13;;;;;;;11.63;10.55;;;15.70;99.90;;;;;;4979992;28;20022;-91
2023/09/28 03:45:44;;;;;;;13.40;10.68;;;15.60;99.90;;;;;;5000281;28;20025;-93
2023/09/28 03:48:15;;;;;;;12.13;10.95;;;15.60;99.90;;;;;;4983765;28;20045;-93
2023/09/28 03:50:40;;;;;;;12.18;11.15;;;15.70;99.90;;;;;;5002613;28;20023;-93
2023/09/28 03:53:12;;;;;;;11.65;10.32;;;15.70;99.90;;;;;;4989960;28;20100;-95
2023/09/28 03:55:38;;;;;;;11.32;10.25;;;15.70;99.90;;;;;;5004753;28;20014;-96
2023/09/28 03:58:04;;;;;;;11.88;10.70;;;15.80;99.90;;;;;;5016506;23;20059;-94
2023/09/28 04:00:38;;;;;;;11.60;10.55;;;15.70;99.90;;;;;;5005803;28;20026;-93
2023/09/28 04:03:04;;;;;;;;;;;15.70;99.90;;;;;;4997256;28;20034;-92
2023/09/28 04:05:31;;;;;;;12.70;11.60;;;15.70;99.90;;;;;;5003416;28;19913;-94
2023/09/28 04:08:15;;;;;;;11.65;10.55;;;15.70;99.90;;;;;;5016338;28;20034;-94
2023/09/28 04:10:41;;;;;;;11.30;10.18;;;15.70;99.90;;;;;;5007471;28;20030;-93
2023/09/28 04:13:07;;;;;;;10.93;9.82;;;15.70;99.90;;;;;;5010387;28;20031;-92
2023/09/28 04:15:35;;;;;;;11.18;10.15;;;15.70;99.90;;;;;;5027654;28;20026;-93
2023/09/28 04:18:14;;;;;;;;;;;;;;;;;;;;;
2023/09/28 04:20:41;;;;;;;10.98;9.98;;;15.70;99.90;;;;;;5008154;28;20062;-93
2023/09/28 04:23:12;;;;;;;10.50;9.43;;;15.60;99.90;;;;;;5009010;28;20026;-93
2023/09/28 04:25:38;;;;;;;11.18;9.40;;;15.50;99.90;;;;;;5008097;28;20132;-93
2023/09/28 04:28:13;;;;;;;10.07;9.18;;;15.40;99.90;;;;;;5010156;28;20038;-94
2023/09/28 04:30:39;;;;;;;10.73;9.82;;;15.40;99.90;;;;;;5016836;28;20038;-93
2023/09/28 04:33:05;;;;;;;13.50;10.10;;;15.30;99.90;;;;;;5007417;28;20038;-93
2023/09/28 04:35:34;;;;;;;11.68;10.73;;;15.30;99.90;;;;;;5007979;28;20037;-93
2023/09/28 04:38:03;;;;;;;9.32;6.90;;;15.30;99.90;;;;;;5008696;28;20424;-92
2023/09/28 04:40:53;;;;;;;8.40;7.70;;;15.30;99.90;;;;;;5019615;28;20076;-94
2023/09/28 04:43:19;;;;;;;8.63;7.72;;;15.40;99.90;;;;;;4987732;28;20069;-91
2023/09/28 04:45:54;;;;;;;10.40;9.10;;;15.20;99.90;;;;;;5011845;28;20503;-92
2023/09/28 04:48:20;;;;;;;10.15;8.85;;;15.20;99.90;;;;;;5007311;28;20018;-91
2023/09/28 04:50:51;;;;;;;8.70;7.90;;;15.20;99.90;;;;;;5005128;28;20037;-93
2023/09/28 04:53:20;;;;;;;8.70;7.70;;;15.20;99.90;;;;;;5004071;28;20117;-93
2023/09/28 04:55:52;;;;;;;8.75;7.78;;;15.20;99.90;;;;;;4988450;28;20061;-93
2023/09/28 04:58:18;;;;;;;8.95;8.00;;;15.30;99.90;;;;;;5007985;28;20125;-92
2023/09/28 05:00:44;;;;;;;9.48;7.93;;;15.20;99.90;;;;;;5007949;28;20034;-93
2023/09/28 05:03:13;;;;;;;9.32;8.45;;;15.10;99.90;;;;;;5005989;28;20026;-94
2023/09/28 05:05:43;;;;;;;9.60;8.68;;;15.10;99.90;;;;;;5005352;28;20038;-93
2023/09/28 05:08:10;;;;;;;9.70;8.80;;;15.20;99.90;;;;;;5004622;28;20026;-93
2023/09/28 05:10:38;;;;;;;9.52;8.52;;;15.20;99.90;;;;;;5020089;28;20049;-92
2023/09/28 05:13:05;;;;;;;11.70;8.43;;;15.10;99.90;;;;;;5011163;28;20079;-93
2023/09/28 05:15:31;;;;;;;8.48;7.68;;;15.00;99.90;;;;;;5000038;28;20504;-91
2023/09/28 05:17:56;;;;;;;8.52;7.80;;;15.10;99.90;;;;;;5012713;28;20022;-95
2023/09/28 05:20:22;;;;;;;8.93;7.93;;;15.10;99.90;;;;;;5007854;28;20034;-93
2023/09/28 05:22:50;;;;;;;9.43;8.15;;;15.00;99.90;;;;;;5004912;28;20019;-92
2023/09/28 05:25:21;;;;;;;9.45;8.52;;;14.90;99.90;;;;;;5004726;28;20026;-93
2023/09/28 05:27:46;;;;;;;7.78;7.07;;;14.90;99.90;;;;;;5011100;28;20022;-94
2023/09/28 05:30:16;;;;;;;8.25;7.45;;;14.80;99.90;;;;;;4997409;28;20026;-93
2023/09/28 05:32:42;;;;;;;8.20;7.28;;;14.80;99.90;;;;;;5006335;28;20037;-92
2023/09/28 05:35:08;;;;;;;9.63;8.73;;;14.80;99.90;;;;;;5006869;28;20022;-93
2023/09/28 05:37:34;;;;;;;9.32;7.85;;;14.80;99.90;;;;;;5005603;28;20092;-93
2023/09/28 05:40:00;;;;;;;10.88;8.70;;;14.80;99.90;;;;;;5010289;28;20022;-95
2023/09/28 05:42:26;;;;;;;9.85;7.80;;;14.90;99.90;;;;;;5009658;28;20015;-92
2023/09/28 05:44:52;;;;;;;8.82;7.78;;;14.90;99.90;;;;;;5015442;28;20032;-92
2023/09/28 05:47:20;;;;;;;9.07;7.90;;;15.00;99.90;;;;;;5001749;28;20031;-93
2023/09/28 05:49:46;;;;;;;9.93;8.93;;;14.90;99.90;;;;;;5011140;28;20037;-94
2023/09/28 05:52:12;;;;;;;8.73;7.85;;;15.00;99.90;;;;;;5017337;28;20061;-94
2023/09/28 05:54:38;;;;;;;9.15;8.25;;;15.00;99.90;;;;;;5007586;28;20019;-94
2023/09/28 05:57:04;;;;;;;7.88;6.97;;;14.90;99.90;;;;;;5011825;28;20034;-93
2023/09/28 05:59:30;;;;;;;9.32;8.30;;;14.90;99.90;;;;;;5016844;28;20094;-96
2023/09/28 06:02:02;;;;;;;9.13;8.20;;;14.90;99.90;;;;;;5023100;28;20041;-95
2023/09/28 06:04:35;;;;;;;10.73;7.22;;;14.90;99.90;;;;;;5014393;28;20409;-94
2023/09/28 06:07:01;;;;;;;9.98;7.65;;;14.90;99.90;;;;;;5007446;28;20353;-93
2023/09/28 06:09:29;;;;;;;8.80;8.00;;;14.80;99.90;;;;;;5021594;28;20017;-94
2023/09/28 06:11:57;;;;;;;8.25;7.35;;;14.80;99.90;;;;;;5008668;28;20038;-94
2023/09/28 06:14:23;;;;;;;9.98;8.10;;;14.80;99.90;;;;;;5014575;28;20042;-93
2023/09/28 06:17:01;;;;;;;7.95;7.25;;;14.90;99.90;;;;;;5010705;28;20018;-93
2023/09/28 06:19:31;;;;;;;7.53;6.93;;;14.90;99.90;;;;;;5013918;28;20023;-92
2023/09/28 06:21:59;;;;;;;7.40;6.47;;;14.90;99.90;;;;;;5006631;28;20174;-91
2023/09/28 06:24:25;;;;;;;10.82;7.10;;;14.90;99.90;;;;;;5007443;28;20030;-93
2023/09/28 06:26:53;;;;;;;8.50;6.82;;;14.90;99.90;;;;;;4993274;28;20026;-92
2023/09/28 06:29:19;;;;;;;9.30;8.50;;;14.90;99.90;;;;;;5010313;28;20036;-95
2023/09/28 06:31:44;;;;;;;10.50;9.63;;;14.90;99.90;;;;;;5007818;28;20065;-93
2023/09/28 06:34:10;;;;;;;9.32;7.82;;;14.90;99.90;;;;;;5008353;28;20073;-92
2023/09/28 06:36:36;;;;;;;10.38;8.15;;;14.90;99.90;;;;;;5000321;28;20536;-94
2023/09/28 06:39:03;;;;;;;11.43;10.50;;;15.00;99.90;;;;;;5015548;28;20022;-94
2023/09/28 06:41:30;;;;;;;7.40;6.70;;;15.00;99.90;;;;;;4996643;28;20046;-94
2023/09/28 06:43:56;;;;;;;8.68;7.88;;;14.90;99.90;;;;;;5001717;28;20077;-93
2023/09/28 06:46:22;;;;;;;8.23;7.53;;;14.90;99.90;;;;;;5005711;28;20436;-94
2023/09/28 06:48:49;;;;;;;9.15;8.38;;;15.00;99.90;;;;;;5009491;28;20456;-93
2023/09/28 06:51:15;;;;;;;8.57;7.78;;;15.10;99.90;;;;;;5005922;28;20025;-93
2023/09/28 06:53:42;;;;;;;9.05;8.15;;;15.20;99.90;;;;;;4999784;28;20033;-92
2023/09/28 06:56:07;;;;;;;9.27;8.38;;;15.20;99.90;;;;;;5007629;28;20033;-92
2023/09/28 06:58:34;;;;;;;7.63;6.88;;;15.30;99.90;;;;;;5000809;28;20034;-93
2023/09/28 07:01:00;;;;;;;9.13;8.05;;;15.20;99.90;;;;;;5009615;28;20068;-93
2023/09/28 07:03:26;;;;;;;10.13;9.13;;;15.40;99.90;;;;;;5002752;28;20022;-94
2023/09/28 07:05:52;;;;;;;8.80;7.90;;;15.50;99.90;;;;;;5001990;28;20022;-93
2023/09/28 07:08:18;;;;;;;9.27;8.35;;;15.50;99.90;;;;;;5009846;28;20029;-92
2023/09/28 07:10:44;;;;;;;10.40;9.40;;;15.60;99.90;;;;;;5016318;28;20500;-92
2023/09/28 07:13:11;;;;;;;10.57;9.52;;;15.70;99.90;;;;;;5009060;28;20046;-93
2023/09/28 07:15:37;;;;;;;8.50;7.68;;;15.80;99.90;;;;;;5024200;28;20036;-91
2023/09/28 07:18:03;;;;;;;8.48;7.60;;;15.90;99.90;;;;;;5004192;28;20059;-93
2023/09/28 07:20:29;;;;;;;8.68;7.70;;;16.00;99.90;;;;;;5002942;28;20023;-94
2023/09/28 07:22:56;;;;;;;9.82;8.85;;;16.10;99.90;;;;;;5010059;28;20019;-93
2023/09/28 07:25:25;;;;;;;8.45;7.65;;;16.20;99.90;;;;;;5017292;28;20033;-93
2023/09/28 07:27:52;;;;;;;8.20;7.35;;;16.20;99.90;;;;;;5006594;28;20037;-93
2023/09/28 07:30:19;;;;;;;7.65;5.95;;;16.40;99.90;;;;;;5003667;28;20121;-91
2023/09/28 07:32:50;;;;;;;9.35;8.55;;;16.50;99.90;;;;;;5000097;28;20512;-94
2023/09/28 07:35:16;;;;;;;7.90;7.20;;;16.60;99.90;;;;;;4999443;28;20026;-92
2023/09/28 07:37:43;;;;;;;8.07;7.30;;;16.70;99.90;;;;;;5000913;28;20022;-91
2023/09/28 07:40:12;;;;;;;10.00;8.70;;;16.70;99.90;;;;;;5019479;28;20057;-93
2023/09/28 07:42:44;;;;;;;10.80;8.25;;;16.90;99.80;;;;;;5015771;28;20015;-94
2023/09/28 07:45:12;;;;;;;10.13;7.85;;;17.00;99.10;;;;;;5022828;28;20007;-95
2023/09/28 07:47:44;;;;;;;10.60;9.52;;;17.00;98.10;;;;;;5012511;28;20122;-93
2023/09/28 07:50:14;;;;;;;9.13;8.05;;;17.10;97.10;;;;;;5008537;28;20117;-93
2023/09/28 07:52:43;;;;;;;8.70;7.93;;;17.20;96.90;;;;;;5016386;28;20041;-92
2023/09/28 07:55:10;;;;;;;8.27;7.47;;;17.20;97.60;;;;;;4998950;28;20038;-93
2023/09/28 07:57:36;;;;;;;8.85;7.80;;;17.40;97.30;;;;;;5014785;28;20033;-91
2023/09/28 08:00:02;;;;;;;9.50;8.75;;;17.40;95.80;;;;;;5000243;28;20026;-91
2023/09/28 08:02:28;;;;;;;12.35;8.50;;;17.40;94.80;;;;;;5001465;28;20029;-92
2023/09/28 08:04:54;;;;;;;8.48;7.78;;;17.50;95.60;;;;;;5010654;28;20033;-93
2023/09/28 08:07:20;;;;;;;8.30;7.53;;;17.50;95.20;;;;;;5019793;28;20163;-92
2023/09/28 08:09:47;;;;;;;8.90;7.95;;;17.60;95.10;;;;;;5021074;28;20030;-90
2023/09/28 08:12:13;;;;;;;9.07;7.40;;;17.60;93.90;;;;;;5019574;28;20068;-91
2023/09/28 08:14:39;;;;;;;7.93;7.13;;;17.70;94.30;;;;;;5021240;28;20138;-92
2023/09/28 08:17:05;;;;;;;8.02;7.28;;;17.90;94.40;;;;;;4993669;28;20077;-92
2023/09/28 08:19:31;;;;;;;7.47;6.78;;;18.00;91.90;;;;;;5001379;28;20493;-91
2023/09/28 08:21:56;;;;;;;6.85;6.18;;;18.00;90.80;;;;;;5006221;28;20022;-92
2023/09/28 08:24:22;;;;;;;8.52;7.60;;;18.10;90.90;;;;;;5021809;28;20022;-91
2023/09/28 08:26:48;;;;;;;8.18;7.38;;;18.20;91.60;;;;;;5037210;28;20133;-91
2023/09/28 08:29:15;;;;;;;8.02;6.80;;;18.40;89.60;;;;;;5006934;28;20098;-91
2023/09/28 08:31:40;;;;;;;7.90;7.20;;;18.40;90.00;;;;;;5000610;28;20090;-89
2023/09/28 08:34:08;;;;;;;7.63;6.85;;;18.50;88.70;;;;;;5000186;28;20121;-89
2023/09/28 08:36:34;;;;;;;;;;;18.70;90.30;;;;;;5001125;28;20018;-91
2023/09/28 08:38:59;;;;;;;6.65;6.13;;;18.70;87.00;;;;;;5000875;28;19913;-92
2023/09/28 08:41:28;;;;;;;7.60;6.75;;;18.80;86.40;;;;;;4999223;28;20029;-92
2023/09/28 08:44:05;;;;;;;6.95;6.10;;;18.90;85.20;;;;;;5002441;28;20022;-91
2023/09/28 08:46:38;;;;;;;7.53;5.85;;;19.00;84.80;;;;;;5013199;28;20030;-92
2023/09/28 08:49:05;;;;;;;8.13;6.80;;;19.10;83.40;;;;;;5011811;28;20077;-90
2023/09/28 08:51:32;;;;;;;8.25;6.43;;;19.20;84.50;;;;;;4990576;28;20026;-92
2023/09/28 08:54:05;;;;;;;7.22;6.57;;;19.30;83.70;;;;;;5009652;28;20030;-93
2023/09/28 08:56:42;;;;;;;7.30;6.60;;;19.40;83.10;;;;;;5003964;28;20023;-93
2023/09/28 08:59:09;;;;;;;9.82;6.85;;;19.60;83.90;;;;;;4998083;28;20061;-90
2023/09/28 09:01:36;;;;;;;10.02;6.68;;;19.80;82.70;;;;;;4982083;28;20033;-94
2023/09/28 09:04:03;;;;;;;8.20;6.70;;;19.80;82.50;;;;;;5011878;28;20033;-92
2023/09/28 09:06:30;;;;;;;7.13;6.43;;;20.00;82.80;;;;;;5006137;28;20088;-93
2023/09/28 09:09:01;;;;;;;6.57;5.97;;;20.10;82.40;;;;;;5011444;28;20032;-92
2023/09/28 09:11:31;;;;;;;7.05;6.20;;;20.30;81.50;;;;;;5006633;28;20424;-92
2023/09/28 09:13:57;;;;;;;6.55;5.72;;;20.50;79.50;;;;;;4999156;28;20022;-91
2023/09/28 09:16:33;;;;;;;7.25;6.55;;;20.60;79.30;;;;;;5010435;28;20527;-93
2023/09/28 09:18:58;;;;;;;7.13;6.55;;;20.70;78.40;;;;;;5004193;28;20025;-90
2023/09/28 09:21:25;;;;;;;7.60;6.30;;;20.90;77.20;;;;;;5003114;28;20492;-92
2023/09/28 09:24:02;;;;;;;6.70;5.97;;;21.10;74.70;;;;;;5003197;28;20034;-93
2023/09/28 09:26:28;;;;;;;5.70;3.83;;;21.10;73.70;;;;;;5010222;28;20501;-95
2023/09/28 09:28:58;;;;;;;6.07;5.13;;;21.20;72.10;;;;;;5008768;28;20316;-91
2023/09/28 09:31:24;;;;;;;7.10;5.68;;;21.40;70.70;;;;;;5006762;28;20041;-93
2023/09/28 09:33:50;;;;;;;7.28;6.53;;;21.50;71.30;;;;;;5003874;28;20085;-92
2023/09/28 09:36:19;;;;;;;6.07;5.55;;;21.80;70.10;;;;;;5005551;28;20115;-92
2023/09/28 09:38:45;;;;;;;7.20;4.40;;;21.90;70.40;;;;;;5003331;28;20042;-93
2023/09/28 09:41:11;;;;;;;8.05;7.35;;;22.00;69.30;;;;;;4998107;28;20041;-93
2023/09/28 09:43:40;;;;;;;6.72;5.43;;;22.10;69.40;;;;;;5000148;28;20023;-93
2023/09/28 09:46:10;;;;;;;6.60;6.05;;;22.30;69.10;;;;;;4993582;28;20135;-92
2023/09/28 09:48:41;;;;;;;5.82;5.13;;;22.60;67.50;;;;;;5008652;28;20022;-93
2023/09/28 09:51:15;;;;;;;7.45;5.63;;;22.70;68.00;;;;;;4995712;28;20077;-93
2023/09/28 09:53:47;;;;;;;;;;;22.90;66.30;;;;;;5009293;28;20014;-92
2023/09/28 09:56:16;;;;;;;7.43;6.57;;;23.20;65.00;;;;;;4999583;28;19996;-94
2023/09/28 09:58:49;;;;;;;5.55;4.93;;;23.50;64.00;;;;;;5001073;28;20038;-93
2023/09/28 10:01:25;;;;;;;6.85;5.57;;;23.50;63.90;;;;;;4998977;28;20022;-92
2023/09/28 10:03:51;;;;;;;6.03;5.43;;;23.70;61.60;;;;;;5008955;28;20031;-93
2023/09/28 10:06:19;;;;;;;9.60;5.95;;;23.70;61.00;;;;;;5000463;28;20026;-92
2023/09/28 10:08:48;;;;;;;5.75;4.32;;;23.80;60.80;;;;;;5000904;28;20030;-93
2023/09/28 10:11:16;;;;;;;6.22;5.60;;;24.00;60.40;;;;;;4997146;28;20038;-94
2023/09/28 10:13:43;;;;;;;6.13;4.80;;;24.20;60.20;;;;;;5001957;28;20106;-94
2023/09/28 10:16:12;;;;;;;5.47;4.95;;;24.30;59.90;;;;;;5002427;28;20035;-92
2023/09/28 10:18:47;;;;;;;6.78;6.07;;;24.10;59.60;;;;;;4995333;28;20022;-94
2023/09/28 10:21:14;;;;;;;9.93;5.70;;;24.50;58.80;;;;;;4988376;28;20026;-90
2023/09/28 10:23:41;;;;;;;5.03;4.40;;;24.50;56.60;;;;;;4998061;28;20397;-93
2023/09/28 10:26:20;;;;;;;9.27;4.63;;;24.80;56.90;;;;;;4998219;28;20018;-93
2023/09/28 10:29:12;;;;;;;6.32;5.00;;;25.10;56.00;;;;;;5010977;28;20034;-95
2023/09/28 10:31:42;;;;;;;5.25;4.72;;;25.40;54.50;;;;;;5020885;28;20082;-94
2023/09/28 10:34:09;;;;;;;4.60;4.03;;;25.40;52.50;;;;;;4999530;28;20030;-90
2023/09/28 10:36:35;;;;;;;;;;;25.30;53.10;;;;;;5010800;28;20488;-94
2023/09/28 10:39:17;;;;;;;4.03;3.10;;;25.20;53.30;;;;;;5016782;28;19914;-94
2023/09/28 10:41:50;;;;;;;7.18;5.10;;;25.40;52.90;;;;;;5001026;28;20104;-92
2023/09/28 10:44:17;;;;;;;5.05;4.55;;;25.50;53.20;;;;;;4995967;28;20035;-92
2023/09/28 10:46:47;;;;;;;5.05;4.45;;;25.30;49.10;;;;;;5005132;28;20305;-91
2023/09/28 10:49:14;;;;;;;4.85;4.35;;;25.40;48.60;;;;;;5003163;28;20091;-91
2023/09/28 10:51:41;;;;;;;6.38;4.43;;;25.40;47.30;;;;;;4998923;28;20203;-92
2023/09/28 10:54:08;;;;;;;6.05;4.65;;;25.50;48.30;;;;;;5006728;28;20014;-95
2023/09/28 10:56:34;;;;;;;5.38;4.70;;;25.60;46.00;;;;;;5010281;28;20118;-92
2023/09/28 10:59:02;;;;;;;7.20;4.22;;;25.90;45.50;;;;;;5006644;28;20057;-93
2023/09/28 11:01:28;;;;;;;5.57;4.20;;;26.10;45.90;;;;;;5002153;28;20046;-91
2023/09/28 11:03:54;;;;;;;8.52;4.43;;;25.80;45.80;;;;;;5003424;28;20026;-94
2023/09/28 11:06:21;;;;;;;5.55;4.63;;;25.90;45.80;;;;;;5006912;28;20068;-92
2023/09/28 11:08:49;;;;;;;;;;;26.10;45.40;;;;;;5001924;28;20026;-93
2023/09/28 11:11:17;;;;;;;5.47;3.42;;;26.60;43.80;;;;;;5021645;28;20055;-94
2023/09/28 11:13:46;;;;;;;6.32;4.50;;;26.90;43.60;;;;;;5020122;28;20033;-91
2023/09/28 11:16:19;;;;;;;5.93;4.03;;;27.00;43.30;;;;;;5006537;28;20026;-95
2023/09/28 11:18:45;;;;;;;5.03;3.85;;;27.00;42.70;;;;;;5012091;28;20532;-94
2023/09/28 11:21:12;;;;;;;4.85;3.65;;;27.20;41.60;;;;;;5003726;28;20022;-93
2023/09/28 11:23:40;;;;;;;4.53;3.63;;;27.20;42.50;;;;;;5001500;28;20023;-94
2023/09/28 11:26:09;;;;;;;5.28;4.47;;;27.30;41.90;;;;;;4997197;28;20023;-92
2023/09/28 11:28:36;;;;;;;5.53;4.55;;;27.30;41.20;;;;;;4991844;28;20065;-95
2023/09/28 11:31:12;;;;;;;6.82;4.18;;;27.60;40.00;;;;;;4998615;28;20018;-95
2023/09/28 11:33:39;;;;;;;5.38;3.08;;;27.90;38.60;;;;;;5002063;28;20022;-91
2023/09/28 11:36:12;;;;;;;5.68;4.28;;;28.20;40.20;;;;;;5003337;28;20058;-94
2023/09/28 11:38:43;;;;;;;4.57;3.40;;;28.10;38.80;;;;;;5010297;28;20547;-92
2023/09/28 11:41:08;;;;;;;4.45;4.05;;;28.10;38.20;;;;;;5006545;28;20022;-92
2023/09/28 11:43:44;;;;;;;5.15;3.58;;;27.80;38.40;;;;;;5006607;28;20497;-93
2023/09/28 11:46:12;;;;;;;5.28;2.97;;;27.80;38.50;;;;;;4999627;28;20037;-94
2023/09/28 11:48:41;;;;;;;5.75;4.00;;;28.30;38.10;;;;;;4999993;28;20045;-94
2023/09/28 11:51:08;;;;;;;5.10;3.78;;;28.70;37.00;;;;;;4999427;28;20041;-93
2023/09/28 11:53:40;;;;;;;4.10;2.92;;;28.60;36.30;;;;;;5006405;28;20314;-93
2023/09/28 11:56:06;;;;;;;3.97;3.47;;;28.60;36.10;;;;;;4990330;28;20081;-92
2023/09/28 11:58:34;;;;;;;4.05;3.65;;;28.70;35.50;;;;;;4996414;28;20034;-91
2023/09/28 12:00:59;;;;;;;4.68;3.40;;;28.90;35.60;;;;;;4998525;28;20030;-92
2023/09/28 12:03:26;;;;;;;5.78;3.92;;;28.60;36.10;;;;;;5006995;28;20045;-92
2023/09/28 12:05:52;;;;;;;10.75;3.90;;;28.40;36.70;;;;;;5001975;28;20095;-93
2023/09/28 12:08:18;;;;;;;5.88;3.50;;;28.20;37.70;;;;;;5004401;28;20072;-94
2023/09/28 12:10:43;;;;;;;5.38;3.88;;;28.40;38.10;;;;;;5006052;28;20244;-94
2023/09/28 12:13:11;;;;;;;7.38;4.30;;;27.90;37.10;;;;;;5003807;28;20058;-93
2023/09/28 12:15:40;;;;;;;5.22;4.35;;;28.40;36.90;;;;;;4996018;28;20023;-93
2023/09/28 12:18:06;;;;;;;7.25;3.70;;;28.70;36.10;;;;;;4988603;28;20023;-92
2023/09/28 12:20:32;;;;;;;7.60;3.88;;;28.60;37.20;;;;;;4997057;28;20033;-91
2023/09/28 12:22:58;;;;;;;11.25;3.33;;;28.70;36.50;;;;;;4997188;28;20038;-93
2023/09/28 12:25:23;;;;;;;5.53;3.58;;;29.00;36.10;;;;;;5003834;28;20030;-93
2023/09/28 12:27:52;;;;;;;5.80;3.72;;;28.90;35.20;;;;;;5006179;28;20077;-92
2023/09/28 12:30:22;;;;;;;4.85;3.58;;;29.20;36.10;;;;;;5007565;28;20030;-92
2023/09/28 12:32:51;;;;;;;5.03;3.25;;;29.70;33.60;;;;;;4998833;28;20496;-93
2023/09/28 12:35:17;;;;;;;4.90;3.80;;;30.20;33.00;;;;;;4995169;28;20022;-92
2023/09/28 12:37:44;;;;;;;5.10;2.92;;;30.40;32.70;;;;;;5000945;28;20057;-91
2023/09/28 12:40:12;;;;;;;5.00;3.75;;;30.20;34.20;;;;;;5001476;28;20018;-92
2023/09/28 12:42:39;;;;;;;5.38;3.85;;;29.50;35.10;;;;;;5001002;28;20026;-93
2023/09/28 12:45:07;;;;;;;6.93;3.47;;;29.80;35.00;;;;;;5007689;28;20030;-93
2023/09/28 12:47:33;;;;;;;5.03;3.85;;;30.20;33.60;;;;;;5001383;28;20030;-93
2023/09/28 12:49:59;;;;;;;10.50;3.03;;;30.20;33.70;;;;;;5001571;28;20103;-93
2023/09/28 12:52:25;;;;;;;4.93;3.15;;;30.50;35.20;;;;;;5001730;28;20041;-93